createdAt,value
2022-12-18T00:02:14.727Z,30.73
2022-12-18T00:05:18.764Z,29.94
2022-12-18T00:08:22.914Z,30.00
2022-12-18T00:11:26.669Z,29.01
2022-12-18T00:14:30.648Z,29.93
2022-12-18T00:17:34.837Z,30.55
2022-12-18T00:20:38.815Z,30.96
2022-12-18T00:23:43.297Z,30.54
2022-12-18T00:26:47.505Z,30.81
2022-12-18T00:29:53.110Z,30.53
2022-12-18T00:32:57.305Z,30.49
2022-12-18T00:36:01.412Z,30.76
2022-12-18T00:39:05.277Z,30.01
2022-12-18T00:42:09.913Z,30.42
2022-12-18T00:45:14.144Z,30.28
2022-12-18T00:48:17.943Z,31.26
2022-12-18T00:51:21.937Z,29.87
2022-12-18T00:54:25.899Z,29.96
2022-12-18T00:57:30.420Z,30.60
2022-12-18T01:00:34.478Z,30.68
2022-12-18T01:03:38.643Z,30.53
2022-12-18T01:06:42.868Z,30.16
2022-12-18T01:09:46.914Z,31.02
2022-12-18T01:12:50.761Z,31.23
2022-12-18T01:15:54.608Z,31.27
2022-12-18T01:18:58.650Z,31.23
2022-12-18T01:22:02.411Z,30.76
2022-12-18T01:25:06.659Z,31.17
2022-12-18T01:28:10.757Z,31.86
2022-12-18T01:31:14.558Z,30.21
2022-12-18T01:34:18.356Z,29.44
2022-12-18T01:37:22.533Z,30.84
2022-12-18T01:40:27.318Z,31.36
2022-12-18T01:43:31.928Z,30.79
2022-12-18T01:46:36.069Z,31.39
2022-12-18T01:49:40.037Z,31.02
2022-12-18T01:52:44.207Z,30.77
2022-12-18T01:55:48.403Z,31.59
2022-12-18T01:58:52.531Z,31.43
2022-12-18T02:01:57.475Z,30.93
2022-12-18T02:05:01.836Z,31.28
2022-12-18T02:08:05.584Z,31.88
2022-12-18T02:11:09.587Z,31.77
2022-12-18T02:14:13.666Z,31.36
2022-12-18T02:17:17.608Z,31.78
2022-12-18T02:20:21.607Z,31.49
2022-12-18T02:23:25.810Z,31.42
2022-12-18T02:26:29.878Z,30.84
2022-12-18T02:29:33.864Z,30.46
2022-12-18T02:32:37.711Z,30.46
2022-12-18T02:35:41.857Z,31.31
2022-12-18T02:38:46.120Z,30.28
2022-12-18T02:41:50.264Z,31.25
2022-12-18T02:44:54.187Z,30.49
2022-12-18T02:47:58.246Z,30.56
2022-12-18T02:51:02.586Z,30.62
2022-12-18T02:54:06.615Z,31.21
2022-12-18T02:57:10.680Z,31.09
2022-12-18T03:00:14.571Z,31.52
2022-12-18T03:03:18.703Z,31.15
2022-12-18T03:06:23.806Z,31.86
2022-12-18T03:09:27.875Z,31.38
2022-12-18T03:12:32.123Z,31.10
2022-12-18T03:15:35.710Z,32.04
2022-12-18T03:18:39.842Z,31.43
2022-12-18T03:21:43.880Z,31.16
2022-12-18T03:24:47.871Z,30.47
2022-12-18T03:27:51.797Z,30.92
2022-12-18T03:30:55.704Z,30.35
2022-12-18T03:34:00.024Z,28.77
2022-12-18T03:37:04.114Z,30.59
2022-12-18T03:40:08.217Z,30.05
2022-12-18T03:43:12.138Z,29.33
2022-12-18T03:46:16.387Z,30.19
2022-12-18T03:49:20.276Z,30.22
2022-12-18T03:52:24.332Z,29.86
2022-12-18T03:55:28.023Z,29.84
2022-12-18T03:58:32.112Z,29.04
2022-12-18T04:01:36.435Z,29.13
2022-12-18T04:04:40.272Z,27.80
2022-12-18T04:07:44.216Z,28.80
2022-12-18T04:10:47.799Z,28.36
2022-12-18T04:13:51.952Z,29.25
2022-12-18T04:16:55.674Z,28.49
2022-12-18T04:20:01.634Z,27.46
2022-12-18T04:23:05.665Z,27.97
2022-12-18T04:26:09.644Z,28.85
2022-12-18T04:29:14.179Z,29.59
2022-12-18T04:32:18.382Z,29.86
2022-12-18T04:35:22.280Z,29.25
2022-12-18T04:38:26.183Z,30.30
2022-12-18T04:41:29.743Z,29.89
2022-12-18T04:44:33.910Z,30.05
2022-12-18T04:47:37.958Z,29.49
2022-12-18T04:50:41.667Z,30.55
2022-12-18T04:53:45.172Z,30.00
2022-12-18T04:56:49.335Z,28.99
2022-12-18T04:59:53.184Z,31.06
2022-12-18T05:02:57.195Z,30.05
2022-12-18T05:06:00.974Z,30.85
2022-12-18T05:09:04.903Z,30.89
2022-12-18T05:12:10.100Z,31.22
2022-12-18T05:15:14.075Z,31.71
2022-12-18T05:18:18.050Z,31.64
2022-12-18T05:21:22.078Z,32.42
2022-12-18T05:24:25.953Z,32.41
2022-12-18T05:27:30.333Z,30.88
2022-12-18T05:30:34.372Z,31.24
2022-12-18T05:33:38.301Z,32.22
2022-12-18T05:36:42.435Z,32.48
2022-12-18T05:39:46.712Z,32.31
2022-12-18T05:42:51.010Z,32.74
2022-12-18T05:45:54.887Z,31.84
2022-12-18T05:48:58.798Z,32.69
2022-12-18T05:52:02.903Z,32.34
2022-12-18T05:55:06.730Z,31.96
2022-12-18T05:58:10.774Z,32.53
2022-12-18T06:01:14.886Z,33.57
2022-12-18T06:04:18.815Z,32.37
2022-12-18T06:07:23.006Z,32.24
2022-12-18T06:10:26.768Z,32.02
2022-12-18T06:13:31.058Z,33.01
2022-12-18T06:16:35.030Z,31.30
2022-12-18T06:19:38.964Z,32.02
2022-12-18T06:22:43.022Z,32.81
2022-12-18T06:25:47.160Z,31.91
2022-12-18T06:28:50.991Z,30.26
2022-12-18T06:31:55.300Z,32.61
2022-12-18T06:34:59.196Z,32.09
2022-12-18T06:38:03.216Z,31.12
2022-12-18T06:41:07.211Z,31.56
2022-12-18T06:44:10.936Z,31.25
2022-12-18T06:47:15.670Z,30.85
2022-12-18T06:50:19.996Z,30.03
2022-12-18T06:53:24.317Z,30.42
2022-12-18T06:56:28.091Z,28.54
2022-12-18T06:59:32.094Z,29.62
2022-12-18T07:02:36.255Z,29.11
2022-12-18T07:05:40.058Z,29.30
2022-12-18T07:08:44.036Z,29.33
2022-12-18T07:11:47.987Z,29.96
2022-12-18T07:14:51.937Z,30.35
2022-12-18T07:17:57.080Z,28.99
2022-12-18T07:21:00.918Z,27.94
2022-12-18T07:24:04.972Z,27.98
2022-12-18T07:27:08.957Z,27.76
2022-12-18T07:30:14.202Z,28.30
2022-12-18T07:33:18.289Z,26.51
2022-12-18T07:36:22.292Z,26.17
2022-12-18T07:39:28.421Z,26.89
2022-12-18T07:42:32.464Z,24.86
2022-12-18T07:45:36.516Z,24.92
2022-12-18T07:48:40.574Z,25.52
2022-12-18T07:51:44.893Z,25.83
2022-12-18T07:54:48.633Z,26.23
2022-12-18T07:57:55.400Z,23.96
2022-12-18T08:01:03.577Z,24.97
2022-12-18T08:04:07.262Z,23.35
2022-12-18T08:07:11.269Z,22.86
2022-12-18T08:10:15.302Z,22.30
2022-12-18T08:13:19.233Z,23.16
2022-12-18T08:16:23.241Z,23.53
2022-12-18T08:19:27.239Z,24.59
2022-12-18T08:22:31.711Z,26.20
2022-12-18T08:25:35.604Z,25.38
2022-12-18T08:28:39.887Z,24.09
2022-12-18T08:31:43.857Z,24.41
2022-12-18T08:34:48.516Z,23.60
2022-12-18T08:37:56.881Z,24.78
2022-12-18T08:41:01.000Z,23.46
2022-12-18T08:44:05.469Z,24.20
2022-12-18T08:47:10.645Z,23.87
2022-12-18T08:50:14.776Z,23.19
2022-12-18T08:53:18.614Z,24.08
2022-12-18T08:56:23.009Z,23.48
2022-12-18T08:59:27.093Z,25.03
2022-12-18T09:02:31.294Z,25.71
2022-12-18T09:05:35.424Z,24.69
2022-12-18T09:08:39.797Z,25.02
2022-12-18T09:11:44.042Z,24.81
2022-12-18T09:14:47.943Z,24.67
2022-12-18T09:17:51.878Z,25.53
2022-12-18T09:20:55.692Z,23.91
2022-12-18T09:23:59.634Z,23.54
2022-12-18T09:27:03.544Z,24.36
2022-12-18T09:30:07.359Z,26.68
2022-12-18T09:33:11.343Z,28.12
2022-12-18T09:36:15.305Z,24.79
2022-12-18T09:39:19.244Z,23.31
2022-12-18T09:42:27.171Z,22.81
2022-12-18T09:45:31.096Z,22.24
2022-12-18T09:48:34.850Z,21.14
2022-12-18T09:51:38.977Z,21.75
2022-12-18T09:54:42.986Z,23.63
2022-12-18T09:57:47.019Z,23.95
2022-12-18T10:00:50.944Z,23.45
2022-12-18T10:03:55.130Z,25.65
2022-12-18T10:07:04.320Z,22.60
2022-12-18T10:10:11.320Z,22.24
2022-12-18T10:13:15.076Z,21.82
2022-12-18T10:16:21.058Z,22.05
2022-12-18T10:19:25.137Z,22.99
2022-12-18T10:22:29.035Z,21.86
2022-12-18T10:25:33.155Z,21.48
2022-12-18T10:28:37.249Z,22.17
2022-12-18T10:31:41.455Z,22.80
2022-12-18T10:34:49.501Z,23.94
2022-12-18T10:37:57.661Z,24.64
2022-12-18T10:41:02.020Z,25.11
2022-12-18T10:44:06.155Z,25.32
2022-12-18T10:47:11.922Z,25.18
2022-12-18T10:50:16.045Z,24.54
2022-12-18T10:53:19.807Z,24.49
2022-12-18T10:56:25.014Z,24.01
2022-12-18T10:59:28.953Z,24.14
2022-12-18T11:02:32.969Z,24.72
2022-12-18T11:05:36.830Z,24.14
2022-12-18T11:08:41.356Z,24.51
2022-12-18T11:11:45.643Z,24.37
2022-12-18T11:14:50.756Z,24.01
2022-12-18T11:17:54.786Z,23.69
2022-12-18T11:20:59.116Z,24.39
2022-12-18T11:24:03.189Z,22.91
2022-12-18T11:27:07.185Z,23.19
2022-12-18T11:30:10.892Z,23.12
2022-12-18T11:33:14.872Z,23.05
2022-12-18T11:36:18.648Z,22.57
2022-12-18T11:39:22.695Z,23.17
2022-12-18T11:42:27.314Z,22.78
2022-12-18T11:45:30.842Z,22.55
2022-12-18T11:48:34.695Z,23.51
2022-12-18T11:51:38.407Z,23.41
2022-12-18T11:54:42.319Z,22.95
2022-12-18T11:57:46.729Z,22.68
2022-12-18T12:00:50.715Z,23.28
2022-12-18T12:03:54.729Z,22.89
2022-12-18T12:07:03.133Z,22.54
2022-12-18T12:10:07.818Z,22.12
2022-12-18T12:13:11.859Z,22.78
2022-12-18T12:16:15.820Z,21.95
2022-12-18T12:19:25.874Z,22.44
2022-12-18T12:22:29.613Z,22.41
2022-12-18T12:25:33.537Z,21.51
2022-12-18T12:28:37.664Z,22.18
2022-12-18T12:31:42.093Z,22.86
2022-12-18T12:34:51.704Z,21.82
2022-12-18T12:37:57.861Z,21.70
2022-12-18T12:41:03.410Z,21.79
2022-12-18T12:44:08.534Z,22.68
2022-12-18T12:47:12.524Z,22.72
2022-12-18T12:50:17.359Z,22.35
2022-12-18T12:53:21.158Z,22.31
2022-12-18T12:56:25.842Z,22.97
2022-12-18T12:59:33.022Z,21.94
2022-12-18T13:02:38.817Z,22.19
2022-12-18T13:05:43.240Z,22.85
2022-12-18T13:08:47.460Z,21.90
2022-12-18T13:11:57.871Z,22.63
2022-12-18T13:15:08.755Z,22.47
2022-12-18T13:18:15.565Z,22.20
2022-12-18T13:21:20.087Z,22.18
2022-12-18T13:24:25.022Z,21.59
2022-12-18T13:27:28.988Z,22.61
2022-12-18T13:30:33.537Z,23.22
2022-12-18T13:33:50.766Z,22.81
2022-12-18T13:37:01.642Z,23.84
2022-12-18T13:40:05.870Z,22.96
2022-12-18T13:43:10.021Z,23.16
2022-12-18T13:46:14.139Z,23.48
2022-12-18T13:49:19.906Z,23.26
2022-12-18T13:52:23.945Z,22.44
2022-12-18T13:55:28.074Z,23.56
2022-12-18T13:58:32.010Z,23.06
2022-12-18T14:01:36.040Z,23.20
2022-12-18T14:04:39.972Z,23.81
2022-12-18T14:07:46.530Z,22.83
2022-12-18T14:10:55.228Z,23.64
2022-12-18T14:13:59.367Z,22.62
2022-12-18T14:17:03.209Z,23.56
2022-12-18T14:20:07.116Z,22.89
2022-12-18T14:23:11.216Z,22.84
2022-12-18T14:26:15.346Z,22.58
2022-12-18T14:29:19.266Z,23.15
2022-12-18T14:32:23.657Z,22.10
2022-12-18T14:35:27.739Z,23.18
2022-12-18T14:38:32.372Z,23.92
2022-12-18T14:41:36.226Z,23.09
2022-12-18T14:45:05.013Z,22.68
2022-12-18T14:48:03.736Z,23.20
2022-12-18T14:51:07.557Z,23.04
2022-12-18T14:54:11.570Z,23.73
2022-12-18T14:57:15.723Z,22.54
2022-12-18T15:00:20.975Z,24.72
2022-12-18T15:03:24.849Z,23.26
2022-12-18T15:06:30.080Z,23.74
2022-12-18T15:09:34.233Z,23.60
2022-12-18T15:12:38.111Z,23.58
2022-12-18T15:15:42.398Z,23.48
2022-12-18T15:18:46.265Z,24.35
2022-12-18T15:21:50.347Z,25.34
2022-12-18T15:24:54.284Z,27.24
2022-12-18T15:27:58.383Z,27.49
2022-12-18T15:31:02.458Z,28.23
2022-12-18T15:34:06.332Z,29.22
2022-12-18T15:37:10.667Z,31.26
2022-12-18T15:40:14.624Z,28.78
2022-12-18T15:43:19.745Z,29.11
2022-12-18T15:46:23.784Z,30.55
2022-12-18T15:49:27.553Z,29.92
2022-12-18T15:52:31.687Z,30.35
2022-12-18T15:55:35.769Z,30.52
2022-12-18T15:58:40.322Z,30.24
2022-12-18T16:01:44.065Z,31.51
2022-12-18T16:04:48.008Z,30.63
2022-12-18T16:07:52.101Z,32.03
2022-12-18T16:10:56.178Z,31.54
2022-12-18T16:14:00.368Z,30.61
2022-12-18T16:17:04.102Z,29.74
2022-12-18T16:20:08.257Z,31.18
2022-12-18T16:23:12.469Z,31.04
2022-12-18T16:26:16.507Z,32.12
2022-12-18T16:29:20.654Z,31.08
2022-12-18T16:32:24.811Z,30.30
2022-12-18T16:35:28.646Z,30.31
2022-12-18T16:38:32.996Z,30.89
2022-12-18T16:41:37.088Z,30.22
2022-12-18T16:44:40.989Z,30.37
2022-12-18T16:47:45.124Z,32.87
2022-12-18T16:50:49.103Z,32.30
2022-12-18T16:53:53.282Z,31.25
2022-12-18T16:56:57.303Z,31.45
2022-12-18T17:00:05.442Z,31.02
2022-12-18T17:03:09.760Z,30.93
2022-12-18T17:06:13.478Z,31.89
2022-12-18T17:09:17.760Z,31.53
2022-12-18T17:12:21.934Z,31.68
2022-12-18T17:15:25.899Z,30.52
2022-12-18T17:18:30.015Z,30.83
2022-12-18T17:21:34.016Z,30.96
2022-12-18T17:24:38.124Z,29.93
2022-12-18T17:27:42.143Z,29.40
2022-12-18T17:30:46.091Z,30.10
2022-12-18T17:33:50.096Z,29.82
2022-12-18T17:36:54.041Z,29.61
2022-12-18T17:39:58.168Z,28.86
2022-12-18T17:43:02.126Z,29.94
2022-12-18T17:46:06.185Z,29.99
2022-12-18T17:49:13.333Z,31.10
2022-12-18T17:52:17.322Z,29.95
2022-12-18T17:55:21.351Z,30.11
2022-12-18T17:58:25.357Z,29.84
2022-12-18T18:01:29.406Z,28.36
2022-12-18T18:04:33.317Z,29.25
2022-12-18T18:07:37.350Z,29.83
2022-12-18T18:10:41.235Z,28.95
2022-12-18T18:13:47.164Z,29.67
2022-12-18T18:16:51.171Z,28.16
2022-12-18T18:19:55.324Z,28.55
2022-12-18T18:22:59.482Z,30.00
2022-12-18T18:26:03.452Z,30.30
2022-12-18T18:29:07.983Z,34.94
2022-12-18T18:32:12.608Z,35.21
2022-12-18T18:35:45.131Z,35.35
2022-12-18T18:38:44.121Z,38.30
2022-12-18T18:41:51.027Z,38.22
2022-12-18T18:44:54.960Z,39.10
2022-12-18T18:47:59.687Z,36.32
2022-12-18T18:51:03.800Z,34.85
2022-12-18T18:54:07.875Z,33.50
2022-12-18T18:57:20.399Z,36.10
2022-12-18T19:00:24.386Z,35.45
2022-12-18T19:03:28.420Z,37.58
2022-12-18T19:06:32.362Z,37.03
2022-12-18T19:09:37.394Z,36.60
2022-12-18T19:12:41.364Z,36.11
2022-12-18T19:15:45.364Z,35.57
2022-12-18T19:18:49.353Z,32.00
2022-12-18T19:21:53.274Z,30.46
2022-12-18T19:24:57.375Z,30.45
2022-12-18T19:28:01.464Z,29.72
2022-12-18T19:31:05.359Z,28.80
2022-12-18T19:34:09.360Z,31.26
2022-12-18T19:37:13.514Z,31.60
2022-12-18T19:40:17.659Z,30.77
2022-12-18T19:43:21.728Z,29.89
2022-12-18T19:46:25.810Z,31.59
2022-12-18T19:49:29.746Z,31.56
2022-12-18T19:52:34.323Z,31.39
2022-12-18T19:55:38.409Z,31.02
2022-12-18T19:58:42.910Z,32.89
2022-12-18T20:01:47.182Z,32.27
2022-12-18T20:04:51.332Z,31.53
2022-12-18T20:07:55.373Z,30.90
2022-12-18T20:10:59.255Z,31.00
2022-12-18T20:14:03.020Z,32.58
2022-12-18T20:17:06.960Z,31.30
2022-12-18T20:20:11.072Z,32.11
2022-12-18T20:23:15.271Z,31.18
2022-12-18T20:26:19.421Z,31.53
2022-12-18T20:29:23.340Z,29.70
2022-12-18T20:32:27.328Z,30.67
2022-12-18T20:35:33.571Z,29.76
2022-12-18T20:38:37.658Z,28.83
2022-12-18T20:41:41.674Z,30.10
2022-12-18T20:44:45.540Z,29.69
2022-12-18T20:47:49.670Z,28.69
2022-12-18T20:50:53.626Z,29.64
2022-12-18T20:53:57.787Z,30.34
2022-12-18T20:57:01.835Z,29.56
2022-12-18T21:00:05.657Z,29.19
2022-12-18T21:03:09.842Z,28.81
2022-12-18T21:06:14.126Z,29.33
2022-12-18T21:09:17.997Z,30.14
2022-12-18T21:12:21.987Z,31.22
2022-12-18T21:15:28.790Z,31.11
2022-12-18T21:18:33.067Z,31.29
2022-12-18T21:21:38.710Z,32.50
2022-12-18T21:24:43.379Z,31.83
2022-12-18T21:27:47.369Z,32.90
2022-12-18T21:30:51.259Z,32.27
2022-12-18T21:33:55.852Z,32.48
2022-12-18T21:37:05.876Z,32.07
2022-12-18T21:40:09.993Z,33.50
2022-12-18T21:43:16.074Z,33.35
2022-12-18T21:46:21.959Z,34.06
2022-12-18T21:49:26.004Z,33.63
2022-12-18T21:52:32.053Z,36.14
2022-12-18T21:55:38.037Z,35.29
2022-12-18T21:58:56.637Z,36.51
2022-12-18T22:02:01.375Z,35.37
2022-12-18T22:05:05.396Z,33.67
2022-12-18T22:08:09.942Z,34.28
2022-12-18T22:11:13.866Z,34.32
2022-12-18T22:14:18.734Z,36.29
2022-12-18T22:17:22.728Z,36.32
2022-12-18T22:20:26.913Z,34.34
2022-12-18T22:23:31.004Z,37.24
2022-12-18T22:26:39.455Z,37.36
2022-12-18T22:29:43.925Z,37.28
2022-12-18T22:32:47.950Z,45.43
2022-12-18T22:35:51.864Z,42.15
2022-12-18T22:38:56.131Z,37.30
2022-12-18T22:42:00.159Z,36.53
2022-12-18T22:45:04.008Z,36.41
2022-12-18T22:48:07.906Z,35.62
2022-12-18T22:51:11.811Z,35.35
2022-12-18T22:54:15.814Z,35.09
2022-12-18T22:57:21.951Z,34.79
2022-12-18T23:00:25.544Z,34.71
2022-12-18T23:03:29.667Z,34.97
2022-12-18T23:06:33.643Z,34.93
2022-12-18T23:09:37.749Z,34.04
2022-12-18T23:12:41.792Z,34.27
2022-12-18T23:15:45.732Z,33.73
2022-12-18T23:18:50.032Z,33.36
2022-12-18T23:21:54.885Z,34.94
2022-12-18T23:25:01.226Z,32.95
2022-12-18T23:28:05.234Z,33.82
2022-12-18T23:31:09.137Z,33.60
2022-12-18T23:34:13.019Z,34.60
2022-12-18T23:37:35.296Z,33.85
2022-12-18T23:40:40.958Z,34.61
2022-12-18T23:43:44.874Z,32.76
2022-12-18T23:46:50.862Z,32.55
2022-12-18T23:49:54.977Z,32.04
2022-12-18T23:53:05.014Z,32.04
2022-12-18T23:56:09.687Z,31.95
2022-12-18T23:59:14.065Z,32.82
